Time;durP1;ratioP1;P1;durP2;ratioP2;P2;SDS_P1;SDS_P2;PMS_P1;PMS_P2;Temp;Humidity;BMP_temperature;BMP_pressure;BME280_temperature;BME280_humidity;BME280_pressure;Samples;Min_cycle;Max_cycle;Signal;HPM_P1;HPM_P2
2022/06/23 00:01:46;;;;;;;10.02;6.75;;;;;;;18.60;59.21;101392.81;5241328;28;20494;-40
2022/06/23 00:04:27;;;;;;;14.00;6.95;;;;;;;18.49;59.25;101374.59;5240603;28;20918;-39
2022/06/23 00:07:04;;;;;;;18.40;7.30;;;;;;;18.54;59.43;101388.22;5239802;28;20503;-39
2022/06/23 00:09:56;;;;;;;14.93;8.18;;;;;;;18.48;59.55;101387.13;5227335;28;20430;-40
2022/06/23 00:12:56;;;;;;;11.57;7.47;;;;;;;18.39;59.57;101374.88;5224459;28;24453;-37
2022/06/23 00:15:39;;;;;;;13.93;7.57;;;;;;;18.39;59.59;101378.38;5239041;28;20510;-39
2022/06/23 00:18:19;;;;;;;17.70;8.20;;;;;;;18.35;59.92;101385.13;5241021;28;20440;-39
2022/06/23 00:20:55;;;;;;;13.98;7.35;;;;;;;18.30;59.92;101376.88;5238974;28;20406;-38
2022/06/23 00:23:32;;;;;;;12.75;8.00;;;;;;;18.29;60.07;101383.22;5238807;28;20455;-43
2022/06/23 00:26:11;;;;;;;17.55;6.95;;;;;;;18.31;60.11;101383.88;5235807;28;20439;-42
2022/06/23 00:28:47;;;;;;;10.35;6.78;;;;;;;18.33;59.93;101371.09;5238021;28;20564;-39
2022/06/23 00:31:29;;;;;;;12.73;8.03;;;;;;;18.29;59.96;101364.50;5240605;28;20494;-38
2022/06/23 00:34:04;;;;;;;13.95;7.55;;;;;;;18.26;59.91;101366.72;5238284;28;20501;-40
2022/06/23 00:36:41;;;;;;;13.02;7.63;;;;;;;18.29;60.05;101380.53;5235398;28;20454;-39
2022/06/23 00:39:33;;;;;;;16.00;7.55;;;;;;;18.25;60.20;101379.25;5238341;28;20481;-40
2022/06/23 00:42:18;;;;;;;13.57;8.47;;;;;;;18.19;60.23;101361.28;5232544;28;20421;-38
2022/06/23 00:44:58;;;;;;;11.70;7.45;;;;;;;18.16;60.25;101357.16;5243138;28;20424;-38
2022/06/23 00:47:38;;;;;;;15.43;8.20;;;;;;;18.26;60.21;101375.56;5236924;28;20520;-39
2022/06/23 00:50:25;;;;;;;16.38;8.00;;;;;;;18.08;60.23;101341.19;5240783;28;20515;-39
2022/06/23 00:53:05;;;;;;;12.70;8.30;;;;;;;18.21;60.28;101361.94;5232208;28;20418;-38
2022/06/23 00:55:45;;;;;;;12.82;8.43;;;;;;;18.27;60.37;101371.03;5234360;28;20508;-39
2022/06/23 00:58:32;;;;;;;15.97;8.43;;;;;;;18.19;60.55;101374.66;5242078;28;20466;-39
2022/06/23 01:01:13;;;;;;;12.15;8.10;;;;;;;18.21;60.55;101372.63;5234148;28;20430;-38
2022/06/23 01:03:55;;;;;;;19.40;8.80;;;;;;;18.19;60.54;101372.00;5232668;28;20404;-38
2022/06/23 01:06:39;;;;;;;18.23;8.50;;;;;;;18.16;60.63;101362.50;5244594;28;20521;-38
2022/06/23 01:09:21;;;;;;;15.68;8.48;;;;;;;18.00;60.64;101353.88;5239656;28;20844;-39
2022/06/23 01:11:59;;;;;;;13.50;9.38;;;;;;;17.43;60.81;101272.50;5237830;28;20398;-37
2022/06/23 01:14:40;;;;;;;14.40;8.77;;;;;;;18.06;60.91;101358.47;5225120;28;20412;-38
2022/06/23 01:17:17;;;;;;;16.35;9.90;;;;;;;18.06;60.91;101369.16;5241587;28;20505;-39
2022/06/23 01:20:16;;;;;;;16.58;9.88;;;;;;;18.07;60.88;101376.16;5236372;28;20763;-40
2022/06/23 01:23:15;;;;;;;16.30;9.63;;;;;;;18.05;60.96;101367.47;5236773;28;20410;-39
2022/06/23 01:26:32;;;;;;;18.63;10.07;;;;;;;18.03;61.06;101362.34;5231614;28;20424;-40
2022/06/23 01:29:12;;;;;;;15.88;9.55;;;;;;;17.97;61.10;101352.38;5198414;28;21775;-39
2022/06/23 01:31:48;;;;;;;25.05;10.95;;;;;;;17.95;61.26;101352.56;5235326;28;20419;-37
2022/06/23 01:34:30;;;;;;;19.23;9.80;;;;;;;17.93;61.48;101356.44;5231214;28;20937;-41
2022/06/23 01:37:14;;;;;;;17.50;10.02;;;;;;;17.95;61.48;101352.56;5237030;28;20409;-39
2022/06/23 01:39:53;;;;;;;13.73;9.60;;;;;;;17.97;61.48;101360.41;5234658;28;20394;-38
2022/06/23 01:42:35;;;;;;;16.38;9.23;;;;;;;17.94;61.72;101356.25;5233839;28;20418;-39
2022/06/23 01:45:18;;;;;;;16.20;10.30;;;;;;;17.89;61.67;101353.28;5239433;28;20766;-41
2022/06/23 01:47:56;;;;;;;20.58;10.38;;;;;;;17.91;61.85;101361.16;5232444;28;20414;-39
2022/06/23 01:50:38;;;;;;;16.42;9.77;;;;;;;17.91;62.03;101361.16;5236916;28;20405;-39
2022/06/23 01:53:23;;;;;;;15.90;9.80;;;;;;;17.63;62.01;101315.53;5238537;28;21073;-41
2022/06/23 01:56:35;;;;;;;19.83;10.85;;;;;;;17.89;61.91;101358.63;5229886;28;20424;-37
2022/06/23 01:59:42;;;;;;;18.63;10.27;;;;;;;17.85;61.74;101352.03;5239692;28;20493;-39
2022/06/23 02:02:48;;;;;;;14.05;9.43;;;;;;;17.88;62.05;101367.69;5238804;28;20459;-39
2022/06/23 02:05:36;;;;;;;22.80;10.65;;;;;;;17.88;62.27;101362.34;5236863;28;20399;-40
2022/06/23 02:08:30;;;;;;;17.42;9.98;;;;;;;17.87;62.27;101359.84;5239904;28;20493;-40
2022/06/23 02:11:13;;;;;;;17.65;9.77;;;;;;;17.89;62.22;101358.63;5241437;28;20421;-38
2022/06/23 02:13:54;;;;;;;15.70;9.95;;;;;;;17.89;62.22;101364.00;5241413;28;20403;-40
2022/06/23 02:16:33;;;;;;;19.13;9.20;;;;;;;17.92;62.29;101357.44;5222675;28;20407;-40
2022/06/23 02:19:17;;;;;;;14.77;9.82;;;;;;;17.57;62.32;101305.56;5246316;28;20877;-39
2022/06/23 02:21:55;;;;;;;17.52;10.48;;;;;;;17.80;62.38;101342.91;5231828;28;20495;-40
2022/06/23 02:24:34;;;;;;;14.88;8.88;;;;;;;17.87;62.41;101355.34;5234876;28;20426;-40
2022/06/23 02:27:16;;;;;;;14.23;9.50;;;;;;;17.91;62.39;101363.81;5236825;28;20492;-41
2022/06/23 02:29:58;;;;;;;15.38;9.40;;;;;;;17.90;62.25;101365.66;5239926;28;20416;-41
2022/06/23 02:32:50;;;;;;;14.20;8.27;;;;;;;17.91;62.35;101367.31;5237465;28;20413;-39
2022/06/23 02:35:31;;;;;;;16.33;9.40;;;;;;;17.86;62.33;101359.00;5236454;28;20495;-40
2022/06/23 02:38:09;;;;;;;17.92;9.27;;;;;;;17.59;62.36;101308.88;5229094;28;20406;-38
2022/06/23 02:40:45;;;;;;;12.77;8.40;;;;;;;17.83;62.39;101343.34;5243898;28;20436;-43
2022/06/23 02:43:27;;;;;;;19.55;10.25;;;;;;;17.79;62.34;101342.06;5228481;28;20493;-39
2022/06/23 02:46:51;;;;;;;14.60;8.55;;;;;;;17.80;62.42;101343.72;5236032;28;20785;-39
2022/06/23 02:50:15;;;;;;;17.20;9.20;;;;;;;17.69;62.28;101336.97;5237759;28;20400;-39
2022/06/23 02:53:06;;;;;;;16.75;9.02;;;;;;;17.52;62.29;101317.63;5215658;28;20427;-39
2022/06/23 02:55:54;;;;;;;13.13;8.80;;;;;;;17.71;62.35;101344.78;5205887;28;20497;-43
2022/06/23 02:58:32;;;;;;;14.53;8.67;;;;;;;17.62;62.11;101330.72;5236098;28;20411;-38
2022/06/23 03:01:11;;;;;;;16.02;9.30;;;;;;;17.72;62.14;101341.97;5233370;28;20766;-39
2022/06/23 03:03:48;;;;;;;17.25;9.73;;;;;;;17.65;62.13;101326.84;5237097;28;20523;-38
2022/06/23 03:06:26;;;;;;;16.13;9.53;;;;;;;17.66;62.15;101334.69;5231663;28;20807;-40
2022/06/23 03:09:09;;;;;;;19.95;9.75;;;;;;;17.19;62.03;101262.94;5212946;28;20527;-39
2022/06/23 03:11:53;;;;;;;15.57;9.57;;;;;;;17.55;62.12;101320.94;5245309;28;20410;-38
2022/06/23 03:14:38;;;;;;;15.43;9.55;;;;;;;17.60;62.18;101322.06;5244876;28;20438;-37
2022/06/23 03:17:21;;;;;;;17.98;10.00;;;;;;;17.55;62.10;101313.75;5245378;28;20410;-39
2022/06/23 03:20:03;;;;;;;16.25;10.30;;;;;;;17.60;62.21;101326.56;5237656;28;20487;-39
2022/06/23 03:22:41;;;;;;;19.17;9.70;;;;;;;17.39;62.11;101293.41;5238931;28;20455;-39
2022/06/23 03:25:21;;;;;;;14.90;9.10;;;;;;;17.50;62.12;101317.00;5250351;28;20502;-38
2022/06/23 03:27:59;;;;;;;20.75;11.48;;;;;;;17.55;62.14;101307.59;5252084;28;20799;-38
2022/06/23 03:31:12;;;;;;;16.80;11.50;;;;;;;17.51;62.21;101307.97;5239015;28;20514;-39
2022/06/23 03:33:49;;;;;;;18.42;11.05;;;;;;;17.39;62.29;101304.09;5248867;28;20441;-41
2022/06/23 03:36:29;;;;;;;18.87;10.17;;;;;;;17.47;62.31;101314.69;5239753;28;20404;-38
2022/06/23 03:42:23;;;;;;;19.77;10.75;;;;;;;17.49;62.31;101307.31;5208185;28;20403;-39
2022/06/23 03:45:05;;;;;;;16.17;11.00;;;;;;;17.41;62.43;101299.41;5228899;28;20424;-38
2022/06/23 03:47:47;;;;;;;16.73;10.15;;;;;;;17.50;62.31;101314.31;5243875;28;20442;-37
2022/06/23 03:50:24;;;;;;;19.05;10.48;;;;;;;17.48;62.26;101303.00;5251986;28;20424;-38
2022/06/23 03:53:01;;;;;;;16.55;10.90;;;;;;;17.52;62.35;101309.59;5243791;28;20482;-37
2022/06/23 03:55:40;;;;;;;15.18;11.10;;;;;;;17.49;62.29;101317.97;5238849;28;20418;-39
2022/06/23 03:58:19;;;;;;;20.45;11.45;;;;;;;17.52;62.36;101316.78;5243274;28;20402;-40
2022/06/23 04:00:59;;;;;;;20.70;11.65;;;;;;;17.45;62.35;101308.69;5247824;28;20422;-40
2022/06/23 04:03:38;;;;;;;18.00;11.30;;;;;;;17.48;62.47;101316.34;5231756;28;20975;-40
2022/06/23 04:06:34;;;;;;;20.15;11.35;;;;;;;17.36;62.45;101288.44;5245800;28;20422;-39
2022/06/23 04:09:11;;;;;;;16.67;10.77;;;;;;;17.50;62.68;101306.31;5241789;28;20406;-39
2022/06/23 04:11:56;;;;;;;19.53;11.17;;;;;;;17.55;62.60;101304.91;5237720;28;20418;-39
2022/06/23 04:14:48;;;;;;;17.30;10.23;;;;;;;17.55;62.62;101303.06;5232107;28;20446;-38
2022/06/23 04:17:26;;;;;;;19.15;10.07;;;;;;;17.58;62.51;101296.53;5234025;28;20507;-39
2022/06/23 04:20:04;;;;;;;16.30;10.55;;;;;;;17.48;62.43;101276.28;5241490;28;20402;-39
2022/06/23 04:22:41;;;;;;;16.93;10.57;;;;;;;17.54;62.59;101289.91;5241619;28;20415;-38
2022/06/23 04:25:19;;;;;;;14.27;9.90;;;;;;;17.59;62.62;101283.03;5235833;28;20426;-39
2022/06/23 04:27:55;;;;;;;16.50;10.13;;;;;;;17.54;62.56;101279.25;5236344;28;20430;-42
2022/06/23 04:30:39;;;;;;;16.30;10.65;;;;;;;17.67;62.48;101295.44;5234269;28;20477;-41
2022/06/23 04:33:19;;;;;;;17.65;9.32;;;;;;;17.74;62.46;101296.34;5241138;28;20427;-39
2022/06/23 04:35:55;;;;;;;17.43;9.43;;;;;;;17.78;62.52;101303.03;5231065;28;20490;-39
2022/06/23 04:38:33;;;;;;;20.15;10.65;;;;;;;17.82;62.41;101296.28;5219382;28;20475;-37
2022/06/23 04:41:13;;;;;;;21.02;11.30;;;;;;;17.76;62.67;101280.97;5224430;28;20948;-39
2022/06/23 04:43:49;;;;;;;19.13;9.90;;;;;;;17.83;62.49;101278.41;5236219;28;20444;-40
2022/06/23 04:46:37;;;;;;;13.07;9.10;;;;;;;17.87;62.49;101266.31;5237070;28;20972;-39
2022/06/23 04:49:21;;;;;;;15.95;9.20;;;;;;;17.92;62.42;101275.44;5237185;28;20506;-38
2022/06/23 04:51:57;;;;;;;15.13;9.70;;;;;;;17.95;62.26;101277.72;5240892;28;20744;-39
2022/06/23 04:54:36;;;;;;;16.60;9.43;;;;;;;18.03;62.38;101278.66;5232743;28;20504;-40
2022/06/23 04:57:15;;;;;;;13.52;9.35;;;;;;;18.11;62.28;101270.50;5234054;28;20797;-38
2022/06/23 04:59:51;;;;;;;16.98;10.27;;;;;;;18.18;62.27;101271.44;5236461;28;20887;-39
2022/06/23 05:02:31;;;;;;;14.65;9.60;;;;;;;18.21;62.18;101271.06;5235554;28;20516;-38
2022/06/23 05:05:09;;;;;;;13.45;9.43;;;;;;;18.16;62.14;101246.72;5237660;28;20415;-38
2022/06/23 05:07:46;;;;;;;17.83;9.25;;;;;;;18.94;61.47;101257.53;5237874;28;20437;-39
2022/06/23 05:10:24;;;;;;;16.05;8.05;;;;;;;20.40;60.05;101268.91;5237775;28;20414;-41
2022/06/23 05:12:59;;;;;;;11.95;7.20;;;;;;;21.47;58.94;101257.13;5237960;28;20414;-39
2022/06/23 05:15:35;;;;;;;11.30;6.43;;;;;;;22.59;57.73;101268.34;5238198;28;20454;-39
2022/06/23 05:18:15;;;;;;;12.45;6.50;;;;;;;23.41;56.73;101268.22;5237210;28;20854;-39
2022/06/23 05:20:52;;;;;;;9.32;5.47;;;;;;;24.55;55.20;101271.13;5238576;28;20548;-40
2022/06/23 05:23:28;;;;;;;9.95;5.43;;;;;;;25.07;54.24;101245.06;5239569;28;20431;-39
2022/06/23 05:26:08;;;;;;;9.73;5.22;;;;;;;25.66;53.30;101252.28;5245999;28;20412;-41
2022/06/23 05:28:42;;;;;;;9.40;4.90;;;;;;;26.06;52.42;101256.88;5245409;28;20443;-40
2022/06/23 05:31:20;;;;;;;8.43;5.07;;;;;;;26.59;51.34;101253.75;5234185;28;22800;-41
2022/06/23 05:33:56;;;;;;;12.13;5.47;;;;;;;27.07;50.27;101235.25;5233818;28;20442;-40
2022/06/23 05:36:34;;;;;;;9.02;5.55;;;;;;;27.92;48.97;101235.75;5229100;28;20418;-45
2022/06/23 05:39:17;;;;;;;14.18;5.53;;;;;;;28.14;48.37;101224.84;5236067;28;20500;-41
2022/06/23 05:41:55;;;;;;;11.52;4.72;;;;;;;28.68;47.39;101246.50;5232154;28;20426;-39
2022/06/23 05:44:31;;;;;;;11.05;5.38;;;;;;;28.85;46.81;101255.31;5230899;28;20523;-41
2022/06/23 05:47:05;;;;;;;8.87;4.73;;;;;;;28.86;46.18;101202.56;5235261;28;20418;-41
2022/06/23 05:49:53;;;;;;;10.23;5.20;;;;;;;29.85;44.94;101259.91;5228152;28;20411;-42
2022/06/23 05:52:32;;;;;;;10.38;4.90;;;;;;;30.32;44.32;101267.91;5242019;28;20485;-40
2022/06/23 05:55:14;;;;;;;10.43;4.72;;;;;;;30.49;43.49;101256.72;5239383;28;20905;-41
2022/06/23 05:57:52;;;;;;;9.27;4.10;;;;;;;30.48;43.39;101259.75;5231749;28;20817;-42
2022/06/23 06:00:33;;;;;;;8.65;4.47;;;;;;;30.59;42.72;101253.19;5235681;28;20536;-46
2022/06/23 06:03:15;;;;;;;10.68;4.75;;;;;;;30.85;42.27;101264.09;5223368;28;20970;-43
2022/06/23 06:05:53;;;;;;;7.32;4.25;;;;;;;30.71;42.17;101253.72;5222129;28;20419;-42
2022/06/23 06:08:32;;;;;;;11.88;4.82;;;;;;;30.44;42.18;101264.91;5227923;28;20433;-42
2022/06/23 06:11:05;;;;;;;8.13;4.25;;;;;;;30.56;41.69;101256.44;5227304;28;20427;-42
2022/06/23 06:13:39;;;;;;;10.05;4.68;;;;;;;30.63;41.50;101267.91;5232032;28;20913;-43
2022/06/23 06:16:11;;;;;;;9.20;4.75;;;;;;;30.44;41.38;101264.09;5222078;28;20418;-43
2022/06/23 06:18:46;;;;;;;7.80;4.03;;;;;;;30.48;40.98;101232.50;5220967;28;20962;-42
2022/06/23 06:21:23;;;;;;;7.15;4.28;;;;;;;31.09;40.25;101239.75;5235008;28;20411;-42
2022/06/23 06:24:01;;;;;;;6.53;3.83;;;;;;;31.32;39.71;101235.59;5231133;28;20540;-41
2022/06/23 06:26:41;;;;;;;10.77;4.40;;;;;;;31.28;39.34;101240.78;5230215;28;20927;-42
2022/06/23 06:29:17;;;;;;;8.85;4.68;;;;;;;30.76;39.80;101240.09;5209435;28;20442;-41
2022/06/23 06:31:54;;;;;;;7.90;4.45;;;;;;;30.52;39.98;101237.09;5238676;28;20423;-48
2022/06/23 06:34:33;;;;;;;11.13;4.85;;;;;;;30.44;39.70;101231.38;5228454;28;20879;-48
2022/06/23 06:37:12;;;;;;;10.30;4.57;;;;;;;30.40;39.74;101230.31;5241555;28;20838;-45
2022/06/23 06:39:47;;;;;;;14.35;5.20;;;;;;;30.15;39.56;101201.13;5234060;28;20423;-50
2022/06/23 06:42:25;;;;;;;10.73;4.75;;;;;;;30.26;39.43;101240.94;5230811;28;20411;-46
2022/06/23 06:45:00;;;;;;;7.75;4.15;;;;;;;30.25;39.25;101256.44;5237216;28;20477;-46
2022/06/23 06:47:36;;;;;;;9.95;4.63;;;;;;;30.40;39.18;101250.19;5237546;28;20696;-48
2022/06/23 06:50:29;;;;;;;10.00;4.65;;;;;;;30.68;38.75;101248.00;5229663;28;20424;-47
2022/06/23 06:53:11;;;;;;;11.35;4.10;;;;;;;31.05;38.33;101255.88;5232955;28;20428;-45
2022/06/23 06:55:47;;;;;;;10.40;4.90;;;;;;;31.21;38.01;101248.44;5236712;28;20456;-44
2022/06/23 06:58:26;;;;;;;11.57;4.28;;;;;;;31.41;37.71;101263.97;5234229;28;20416;-47
2022/06/23 07:01:04;;;;;;;10.50;4.07;;;;;;;31.60;37.42;101247.78;5203041;28;20496;-47
2022/06/23 07:03:39;;;;;;;6.93;4.70;;;;;;;31.67;37.24;101248.28;5232439;28;20882;-50
2022/06/23 07:06:20;;;;;;;7.57;4.40;;;;;;;31.54;37.44;101260.63;5218187;28;20425;-46
2022/06/23 07:09:00;;;;;;;9.95;4.32;;;;;;;31.54;37.51;101248.91;5217932;28;20821;-49
2022/06/23 07:11:43;;;;;;;6.25;3.90;;;;;;;31.87;37.10;101218.13;5204429;28;20504;-48
2022/06/23 07:14:23;;;;;;;8.93;4.15;;;;;;;32.43;36.40;101235.22;5210287;28;22600;-49
2022/06/23 07:17:00;;;;;;;8.90;4.22;;;;;;;32.32;36.66;101248.13;5206717;28;20421;-45
2022/06/23 07:19:40;;;;;;;7.17;4.53;;;;;;;32.14;36.72;101258.63;5206939;28;20515;-46
2022/06/23 07:22:19;;;;;;;9.13;4.10;;;;;;;32.49;36.29;101248.56;5216073;28;20898;-48
2022/06/23 07:24:59;;;;;;;11.55;4.13;;;;;;;33.04;35.88;101238.16;5214967;28;20911;-50
2022/06/23 07:27:37;;;;;;;6.63;4.20;;;;;;;32.79;36.16;101239.22;5208797;28;20420;-49
2022/06/23 07:30:15;;;;;;;8.50;3.92;;;;;;;32.23;36.35;101230.72;5211213;28;20933;-47
2022/06/23 07:32:57;;;;;;;12.20;4.72;;;;;;;32.12;36.72;101236.28;5186853;28;20810;-46
2022/06/23 07:35:35;;;;;;;10.43;4.53;;;;;;;31.99;36.78;101236.88;5213818;28;20417;-48
2022/06/23 07:38:13;;;;;;;9.02;4.05;;;;;;;31.61;36.87;101222.91;5218718;28;20431;-45
2022/06/23 07:40:54;;;;;;;8.60;4.00;;;;;;;31.30;37.39;101232.31;5212865;28;20499;-48
2022/06/23 07:43:34;;;;;;;8.75;4.30;;;;;;;31.29;37.22;101225.22;5210193;28;20494;-45
2022/06/23 07:46:08;;;;;;;8.15;3.85;;;;;;;31.29;37.09;101236.16;5210337;28;20918;-47
2022/06/23 07:48:41;;;;;;;8.07;4.32;;;;;;;31.43;36.65;101226.28;5211674;28;20428;-48
2022/06/23 07:51:13;;;;;;;6.93;3.22;;;;;;;31.69;36.51;101227.78;5217069;28;20915;-46
2022/06/23 07:53:50;;;;;;;6.88;3.53;;;;;;;31.91;36.13;101221.13;5212476;28;20489;-47
2022/06/23 07:56:27;;;;;;;6.17;3.70;;;;;;;32.26;36.09;101219.22;5213614;28;21033;-45
2022/06/23 07:59:05;;;;;;;10.48;4.68;;;;;;;32.44;35.80;101202.13;5212688;28;20532;-44
2022/06/23 08:01:43;;;;;;;10.38;4.35;;;;;;;32.06;36.08;101206.53;5207639;28;20433;-47
2022/06/23 08:04:25;;;;;;;8.63;4.47;;;;;;;31.61;36.44;101203.78;5210286;28;20431;-45
2022/06/23 08:07:02;;;;;;;9.73;4.18;;;;;;;30.81;37.27;101192.91;5225218;28;20402;-46
2022/06/23 08:09:41;;;;;;;11.18;4.13;;;;;;;30.49;37.48;101188.59;5238886;28;20547;-45
2022/06/23 08:18:18;;;;;;;10.23;4.35;;;;;;;30.24;37.40;101192.16;5229250;28;20498;-47
2022/06/23 08:20:59;;;;;;;7.75;4.68;;;;;;;30.00;37.52;101193.75;5231788;28;20882;-47
2022/06/23 08:23:37;;;;;;;8.85;4.45;;;;;;;29.76;37.70;101180.69;5224116;28;20422;-43
2022/06/23 08:26:11;;;;;;;9.10;3.90;;;;;;;29.67;37.63;101195.06;5231753;28;20496;-45
2022/06/23 08:28:47;;;;;;;6.63;3.63;;;;;;;29.17;37.85;101173.69;5230411;28;20426;-44
2022/06/23 08:31:21;;;;;;;6.97;4.22;;;;;;;29.15;38.00;101199.50;5229636;28;20460;-47
2022/06/23 08:33:53;;;;;;;8.35;4.78;;;;;;;28.92;38.03;101178.94;5228217;28;20430;-45
2022/06/23 08:36:33;;;;;;;5.97;3.67;;;;;;;29.17;37.59;101202.75;5230854;28;20553;-42
2022/06/23 08:39:15;;;;;;;10.65;4.55;;;;;;;29.45;37.21;101192.53;5226082;28;20408;-44
2022/06/23 08:41:55;;;;;;;8.50;4.30;;;;;;;29.61;37.06;101202.41;5233405;28;20423;-46
2022/06/23 08:44:38;;;;;;;9.18;4.88;;;;;;;29.24;37.28;101187.03;5227496;28;20418;-45
2022/06/23 08:47:17;;;;;;;10.77;5.03;;;;;;;28.93;37.56;101192.28;5228532;28;20781;-46
2022/06/23 08:49:57;;;;;;;12.13;5.35;;;;;;;28.86;37.72;101197.13;5200195;28;20411;-47
2022/06/23 08:52:35;;;;;;;6.60;4.50;;;;;;;28.63;37.66;101171.19;5228033;28;20416;-44
2022/06/23 08:55:13;;;;;;;9.13;4.33;;;;;;;29.01;37.39;101187.44;5226607;28;20436;-48
2022/06/23 08:57:54;;;;;;;5.97;4.70;;;;;;;29.18;37.28;101198.97;5235432;28;20468;-44
2022/06/23 09:00:35;;;;;;;11.57;4.63;;;;;;;29.23;37.20;101198.97;5226051;28;20488;-45
2022/06/23 09:03:14;;;;;;;7.38;4.95;;;;;;;29.04;37.46;101198.63;5233284;28;20774;-44
2022/06/23 09:05:58;;;;;;;10.80;4.80;;;;;;;28.65;37.48;101162.78;5235341;28;20426;-44
2022/06/23 09:08:40;;;;;;;8.93;4.65;;;;;;;28.82;37.63;101189.78;5232194;28;20424;-44
2022/06/23 09:11:19;;;;;;;9.43;4.53;;;;;;;29.02;37.46;101180.94;5238144;28;20431;-44
2022/06/23 09:14:18;;;;;;;11.35;5.07;;;;;;;29.06;37.44;101182.06;5228960;28;20418;-47
2022/06/23 09:17:06;;;;;;;7.40;4.77;;;;;;;29.04;37.52;101186.94;5239824;28;20766;-46
2022/06/23 09:19:57;;;;;;;9.77;5.57;;;;;;;29.00;37.40;101183.91;5236081;28;20413;-49
2022/06/23 09:22:47;;;;;;;11.90;5.10;;;;;;;29.08;37.50;101177.16;5227766;28;20431;-46
2022/06/23 09:25:34;;;;;;;8.25;4.68;;;;;;;29.23;37.21;101177.22;5229704;28;20498;-45
2022/06/23 09:28:20;;;;;;;14.77;4.30;;;;;;;29.60;36.68;101179.78;5232107;28;20773;-48
2022/06/23 09:31:04;;;;;;;13.80;5.07;;;;;;;29.82;36.42;101173.31;5228996;28;20546;-46
2022/06/23 09:33:49;;;;;;;12.32;4.95;;;;;;;29.90;36.43;101171.97;5229498;28;20522;-47
2022/06/23 09:36:50;;;;;;;5.93;3.90;;;;;;;29.91;36.41;101173.59;5229655;28;20557;-48
2022/06/23 09:39:59;;;;;;;9.75;4.88;;;;;;;29.91;36.46;101173.59;5230167;28;20795;-47
2022/06/23 09:43:15;;;;;;;10.60;5.10;;;;;;;29.83;36.45;101154.00;5221685;28;20413;-46
2022/06/23 09:46:16;;;;;;;9.98;5.25;;;;;;;29.91;36.27;101151.81;5236128;28;20431;-44
2022/06/23 09:49:44;;;;;;;13.95;4.93;;;;;;;30.17;36.08;101160.81;5231217;28;20754;-47
2022/06/23 09:52:56;;;;;;;10.90;5.53;;;;;;;30.41;36.00;101161.88;5095266;28;20487;-49
2022/06/23 09:56:21;;;;;;;12.10;5.40;;;;;;;30.30;35.96;101161.09;5216585;28;20414;-46
2022/06/23 09:59:26;;;;;;;9.27;5.32;;;;;;;30.47;35.67;101155.34;5227233;28;20502;-49
2022/06/23 10:02:09;;;;;;;7.80;4.70;;;;;;;30.73;35.80;101158.03;5225261;28;20422;-47
2022/06/23 10:05:01;;;;;;;8.60;4.75;;;;;;;30.96;35.39;101160.13;5228551;28;20781;-48
2022/06/23 10:08:05;;;;;;;9.15;5.32;;;;;;;31.01;35.34;101159.31;5223526;28;20521;-48
2022/06/23 10:11:13;;;;;;;9.10;5.87;;;;;;;30.76;35.34;101157.47;5228488;28;20430;-49
2022/06/23 10:14:08;;;;;;;12.85;6.10;;;;;;;30.56;35.51;101158.31;5204635;28;20817;-47
2022/06/23 10:16:52;;;;;;;9.20;5.03;;;;;;;30.33;35.90;101160.56;5231353;28;20429;-48
2022/06/23 10:19:53;;;;;;;15.00;5.70;;;;;;;30.38;35.68;101142.53;5228363;28;20413;-47
2022/06/23 10:22:52;;;;;;;11.88;5.78;;;;;;;30.75;35.22;101156.66;5229806;28;20419;-47
2022/06/23 10:25:58;;;;;;;12.77;5.45;;;;;;;30.85;35.29;101147.66;5231467;28;20533;-46
2022/06/23 10:29:00;;;;;;;14.37;5.23;;;;;;;31.14;34.73;101142.34;5227075;28;20555;-46
2022/06/23 10:32:00;;;;;;;12.60;5.95;;;;;;;31.30;34.75;101140.34;5224704;28;20424;-45
2022/06/23 10:34:50;;;;;;;14.05;6.40;;;;;;;31.38;34.80;101141.72;5222937;28;20413;-49
2022/06/23 10:37:37;;;;;;;8.93;4.85;;;;;;;31.18;34.78;101124.31;5229558;28;20426;-47
2022/06/23 10:40:55;;;;;;;14.80;6.00;;;;;;;31.20;34.95;101140.41;5227762;28;20407;-47
2022/06/23 10:43:58;;;;;;;13.93;6.25;;;;;;;31.28;34.83;101130.81;5218138;28;20425;-46
2022/06/23 10:46:37;;;;;;;11.87;5.97;;;;;;;31.40;34.62;101139.50;5227595;28;20489;-47
2022/06/23 10:49:32;;;;;;;12.43;5.85;;;;;;;31.42;34.56;101131.84;5228504;28;20411;-48
2022/06/23 10:52:51;;;;;;;9.40;5.43;;;;;;;31.46;34.51;101132.91;5231615;28;20896;-46
2022/06/23 10:55:38;;;;;;;9.32;5.45;;;;;;;31.73;34.19;101121.53;5218308;28;21024;-46
2022/06/23 10:58:51;;;;;;;10.77;5.57;;;;;;;31.93;34.21;101123.28;5220273;28;20724;-47
2022/06/23 11:01:52;;;;;;;12.98;5.68;;;;;;;32.10;33.87;101110.03;5215753;28;20400;-44
2022/06/23 11:05:05;;;;;;;12.93;5.85;;;;;;;32.09;34.14;101111.16;5230515;28;20880;-46
2022/06/23 11:08:03;;;;;;;11.13;5.40;;;;;;;32.05;33.55;101074.56;5233492;28;20423;-49
2022/06/23 11:10:56;;;;;;;9.10;5.53;;;;;;;32.18;33.92;101099.56;5231612;28;20415;-48
2022/06/23 11:13:39;;;;;;;10.68;5.53;;;;;;;32.00;34.16;101099.22;5229459;28;20417;-47
2022/06/23 11:16:22;;;;;;;11.48;6.15;;;;;;;32.08;34.01;101098.56;5231238;28;20950;-45
2022/06/23 11:19:16;;;;;;;11.53;5.37;;;;;;;32.04;33.91;101094.78;5235167;28;20451;-46
2022/06/23 11:22:08;;;;;;;11.02;5.70;;;;;;;31.92;34.30;101102.56;5228676;28;20486;-46
2022/06/23 11:24:56;;;;;;;12.23;6.65;;;;;;;31.90;34.00;101112.97;5231281;28;20798;-45
2022/06/23 11:27:43;;;;;;;12.57;5.72;;;;;;;31.94;34.10;101083.97;5227728;28;20414;-45
2022/06/23 11:30:22;;;;;;;8.60;5.20;;;;;;;32.08;34.16;101095.84;5229827;28;20510;-47
2022/06/23 11:33:22;;;;;;;13.88;6.22;;;;;;;32.31;33.88;101082.50;5234778;28;20430;-47
2022/06/23 11:36:33;;;;;;;15.30;7.10;;;;;;;32.44;33.86;101076.38;5233991;28;20431;-45
2022/06/23 11:39:29;;;;;;;8.57;5.22;;;;;;;32.55;33.88;101077.06;5206434;28;20412;-46
2022/06/23 11:42:18;;;;;;;12.88;5.38;;;;;;;32.83;33.63;101078.91;5237946;28;20877;-53
2022/06/23 11:45:09;;;;;;;13.05;5.20;;;;;;;32.99;33.38;101076.81;5231266;28;20717;-51
2022/06/23 11:47:55;;;;;;;12.10;5.13;;;;;;;33.18;33.41;101079.56;5231537;28;20426;-46
2022/06/23 11:50:39;;;;;;;12.00;5.47;;;;;;;33.09;33.26;101070.38;5235390;28;20430;-46
2022/06/23 11:53:41;;;;;;;13.95;6.30;;;;;;;33.15;33.32;101068.38;5231142;28;20425;-46
2022/06/23 11:56:25;;;;;;;9.23;5.20;;;;;;;33.26;33.22;101065.22;5227722;28;20411;-51
2022/06/23 11:59:23;;;;;;;12.02;5.25;;;;;;;33.43;33.14;101074.81;5235057;28;20692;-45
2022/06/23 12:01:56;;;;;;;15.23;5.57;;;;;;;33.58;32.64;101065.56;5232042;28;20426;-48
2022/06/23 12:05:09;;;;;;;11.27;5.47;;;;;;;33.63;32.91;101054.50;5226087;28;20501;-48
2022/06/23 12:08:23;;;;;;;12.05;4.63;;;;;;;33.65;32.74;101055.03;5218360;28;20414;-48
2022/06/23 12:10:55;;;;;;;10.25;5.35;;;;;;;33.58;32.73;101043.66;5230479;28;20403;-48
2022/06/23 12:13:29;;;;;;;10.57;5.55;;;;;;;33.71;32.65;101060.13;5233349;28;20440;-46
2022/06/23 12:16:03;;;;;;;11.48;4.95;;;;;;;33.84;32.54;101053.03;5232599;28;20788;-50
2022/06/23 12:18:39;;;;;;;16.83;5.22;;;;;;;33.86;32.72;101050.81;5234301;28;20540;-51
2022/06/23 12:21:26;;;;;;;13.80;5.05;;;;;;;33.93;32.78;101051.22;5231863;28;20425;-49
2022/06/23 12:24:07;;;;;;;12.52;4.75;;;;;;;33.81;32.97;101042.69;5231973;28;20472;-47
2022/06/23 12:26:47;;;;;;;9.20;4.57;;;;;;;33.60;33.00;101052.38;5233397;28;20430;-49
2022/06/23 12:29:24;;;;;;;9.47;5.10;;;;;;;33.42;33.00;101054.84;5234909;28;20410;-51
2022/06/23 12:32:03;;;;;;;11.68;4.50;;;;;;;33.37;33.01;101054.91;5235703;28;20477;-44
2022/06/23 12:34:46;;;;;;;14.98;4.80;;;;;;;33.29;33.21;101052.81;5227840;28;20496;-47
2022/06/23 12:37:27;;;;;;;9.23;3.97;;;;;;;33.29;33.39;101055.56;5237075;28;20551;-48
2022/06/23 12:40:04;;;;;;;13.38;4.90;;;;;;;33.53;32.97;101051.94;5228166;28;20923;-50
2022/06/23 12:42:40;;;;;;;14.60;5.30;;;;;;;33.51;33.03;101054.97;5225298;28;20412;-50
2022/06/23 12:45:57;;;;;;;14.68;4.97;;;;;;;33.46;33.08;101047.63;5226635;28;20412;-48
2022/06/23 12:49:04;;;;;;;13.13;4.22;;;;;;;33.34;32.86;101030.84;5217224;28;20895;-48